Hlavní strana
METAR-TAF:

METAR-TAF

Letiště :

Mezinárodní letiště Oděsa

Oděsa, Ukrajina

zeměpisná šířka: 46-26N, zeměpisná délka: 030-46E, výška: 42 m

Aktuální stav počasí

Zpráva byla vytvořena před 20 minutami, v 02:00 UTC
Západní vítr 6 kt
Teplota 18°C
Vlhkost vzduchu 83%
Tlak 1005 hPa
Viditelnost 10 km a více
Žádná oblačnost pod 1500 m, nevyskytují se cumulonimby.

METAR: UKOO 170200Z 28003MPS CAVOK 18/15 Q1005 R34/090060 NOSIG

Čas: 05:20 (02:20 UTC)

Předpověď počasí

Zpráva byla vytvořena před 3 hodinami a 17 minutami, v 23:03 UTC
Předpověď platná od 17 v 00 UTC do 17 v 24 UTC
Západoseverozápadní vítr 6 kt
Viditelnost: 6000 m
Polojasno ve výšce 1500 ft
Polojasno ve výšce 2000 ft, Cumulonimbus.

TAF: UKOO 162303Z 1700/1724 29003MPS 6000 SCT015 SCT020CB TX28/1712Z TN17/1702Z

Stav a předpovědi počasí z více než 4 000 letišť (zprávy METAR a TAF).

Červené a žluté tečky na mapě představují dostupné meteorologické stanice.

Když kurzor umístíte na tečku, zobrazí se název stanice.

Pak kliknutím zobrazíte stav a předpověď počasí.

Chcete-li změnit mapu, kliknutím na zelené tlačítko se znaménkem +mapu přiblížíte, kliknutím na zelené tlačítko se znaménkem – mapu oddálíte a kliknutím na zelené šipky přejdete na sousední mapy.


METAR-TAF: